Time;durP1;ratioP1;P1;durP2;ratioP2;P2;SDS_P1;SDS_P2;PMS_P1;PMS_P2;Temp;Humidity;BMP_temperature;BMP_pressure;BME280_temperature;BME280_humidity;BME280_pressure;Samples;Min_cycle;Max_cycle;Signal;HPM_P1;HPM_P2
2022/05/18 00:01:40;;;;;;;5.95;3.45;;;;;;;;;;6291405;28;19955;-81
2022/05/18 00:04:41;;;;;;;6.72;3.83;;;;;;;;;;6312898;28;20071;-81
2022/05/18 00:07:43;;;;;;;6.30;3.72;;;;;;;;;;6315184;28;20056;-81
2022/05/18 00:10:47;;;;;;;6.47;4.28;;;;;;;;;;6315465;28;20044;-82
2022/05/18 00:13:51;;;;;;;4.70;3.97;;;;;;;;;;6329838;28;20085;-82
2022/05/18 00:16:52;;;;;;;6.03;4.15;;;;;;;;;;6319642;28;20081;-81
2022/05/18 00:19:54;;;;;;;5.45;4.15;;;;;;;;;;6287762;28;20040;-81
2022/05/18 00:23:01;;;;;;;5.70;4.00;;;;;;;;;;6290482;28;20429;-81
2022/05/18 00:26:04;;;;;;;5.90;3.78;;;;;;;;;;6302442;28;20093;-80
2022/05/18 00:29:06;;;;;;;5.85;4.03;;;;;;;;;;6271776;28;20303;-82
2022/05/18 00:32:08;;;;;;;7.15;4.10;;;;;;;;;;6290015;28;20060;-81
2022/05/18 00:35:11;;;;;;;5.43;3.73;;;;;;;;;;6313416;28;20051;-81
2022/05/18 00:38:12;;;;;;;5.82;3.97;;;;;;;;;;6298160;28;20484;-81
2022/05/18 00:41:19;;;;;;;5.45;3.83;;;;;;;;;;6313084;28;20107;-81
2022/05/18 00:44:21;;;;;;;4.22;3.80;;;;;;;;;;6316276;28;20178;-82
2022/05/18 00:47:23;;;;;;;5.45;3.80;;;;;;;;;;6313881;28;20066;-80
2022/05/18 00:50:33;;;;;;;4.65;3.75;;;;;;;;;;6306506;28;20352;-82
2022/05/18 00:53:43;;;;;;;5.05;3.90;;;;;;;;;;6315004;28;20540;-81
2022/05/18 00:56:47;;;;;;;7.97;4.20;;;;;;;;;;6316401;28;20089;-81
2022/05/18 00:59:50;;;;;;;7.75;5.25;;;;;;;;;;6342947;28;20055;-80
2022/05/18 01:03:04;;;;;;;6.82;4.75;;;;;;;;;;6280562;28;1097252;-81
2022/05/18 01:06:32;;;;;;;6.78;5.03;;;;;;;;;;6321886;28;20048;-81
2022/05/18 01:09:40;;;;;;;6.03;4.30;;;;;;;;;;6321937;28;20060;-81
2022/05/18 01:12:41;;;;;;;6.10;4.40;;;;;;;;;;6332935;28;20152;-81
2022/05/18 01:15:43;;;;;;;7.60;4.55;;;;;;;;;;6329033;28;20048;-80
2022/05/18 01:18:45;;;;;;;6.78;4.22;;;;;;;;;;6315561;28;20048;-81
2022/05/18 01:21:59;;;;;;;5.63;4.57;;;;;;;;;;6314853;28;20503;-82
2022/05/18 01:25:19;;;;;;;6.32;4.00;;;;;;;;;;6296663;28;20040;-81
2022/05/18 01:28:25;;;;;;;4.90;3.90;;;;;;;;;;6264471;28;20152;-81
2022/05/18 01:31:48;;;;;;;6.32;4.05;;;;;;;;;;6266459;28;20106;-82
2022/05/18 01:34:50;;;;;;;6.23;4.77;;;;;;;;;;6287438;28;20116;-80
2022/05/18 01:37:57;;;;;;;6.35;4.40;;;;;;;;;;6288549;28;20056;-82
2022/05/18 01:41:05;;;;;;;5.68;4.10;;;;;;;;;;6287470;28;20052;-80
2022/05/18 01:44:06;;;;;;;5.10;4.05;;;;;;;;;;6281751;28;20052;-81
2022/05/18 01:47:08;;;;;;;7.57;4.50;;;;;;;;;;6286550;28;20068;-81
2022/05/18 01:50:14;;;;;;;8.93;4.85;;;;;;;;;;6285170;28;20063;-82
2022/05/18 01:53:16;;;;;;;7.82;5.28;;;;;;;;;;6286188;28;20533;-81
2022/05/18 01:56:18;;;;;;;6.50;4.53;;;;;;;;;;6286688;28;20139;-81
2022/05/18 01:59:20;;;;;;;4.60;3.83;;;;;;;;;;6295364;28;20055;-80
2022/05/18 02:02:22;;;;;;;4.75;4.05;;;;;;;;;;6296784;28;20065;-81
2022/05/18 02:05:24;;;;;;;6.82;4.78;;;;;;;;;;6299079;28;20047;-80
2022/05/18 02:08:26;;;;;;;8.27;4.97;;;;;;;;;;6301085;28;20558;-80
2022/05/18 02:11:32;;;;;;;6.80;5.05;;;;;;;;;;6306581;28;20055;-81
2022/05/18 02:14:33;;;;;;;7.15;4.65;;;;;;;;;;6318617;28;20605;-82
2022/05/18 02:17:37;;;;;;;5.68;4.90;;;;;;;;;;6318661;28;20505;-80
2022/05/18 02:20:39;;;;;;;7.88;4.75;;;;;;;;;;6344296;28;20124;-81
2022/05/18 02:23:42;;;;;;;5.97;4.82;;;;;;;;;;6343647;28;20135;-82
2022/05/18 02:26:44;;;;;;;8.65;4.97;;;;;;;;;;6336115;28;20047;-81
2022/05/18 02:29:52;;;;;;;6.78;5.00;;;;;;;;;;6322514;28;20044;-80
2022/05/18 02:32:54;;;;;;;8.35;5.38;;;;;;;;;;6321585;28;20067;-81
2022/05/18 02:35:55;;;;;;;7.05;5.15;;;;;;;;;;6329444;28;20134;-82
2022/05/18 02:38:57;;;;;;;9.20;5.25;;;;;;;;;;6283895;28;20075;-82
2022/05/18 02:41:59;;;;;;;6.70;5.13;;;;;;;;;;6315289;28;20131;-81
2022/05/18 02:45:00;;;;;;;6.18;4.47;;;;;;;;;;6299700;28;20071;-81
2022/05/18 02:48:02;;;;;;;7.15;4.88;;;;;;;;;;6305345;28;20043;-81
2022/05/18 02:51:04;;;;;;;6.68;4.45;;;;;;;;;;6341104;28;20066;-82
2022/05/18 02:56:05;;;;;;;6.13;4.30;;;;;;;;;;6324931;28;20048;-81
2022/05/18 02:57:35;;;;;;;7.38;5.07;;;;;;;;;;6322710;28;20043;-80
2022/05/18 03:00:37;;;;;;;7.93;4.90;;;;;;;;;;6306664;28;20067;-81
2022/05/18 03:03:40;;;;;;;5.85;5.03;;;;;;;;;;6304812;28;20107;-81
2022/05/18 03:06:41;;;;;;;5.07;4.53;;;;;;;;;;6317033;28;20070;-81
2022/05/18 03:09:43;;;;;;;8.77;5.55;;;;;;;;;;6316011;28;20508;-81
2022/05/18 03:12:45;;;;;;;6.57;5.13;;;;;;;;;;6303629;28;20040;-80
2022/05/18 03:15:47;;;;;;;6.18;4.82;;;;;;;;;;6290736;28;20108;-81
2022/05/18 03:18:49;;;;;;;7.70;5.30;;;;;;;;;;6304092;28;20052;-80
2022/05/18 03:25:11;;;;;;;8.45;4.63;;;;;;;;;;6309123;28;20118;-80
2022/05/18 03:28:13;;;;;;;9.38;5.65;;;;;;;;;;6281799;28;20667;-80
2022/05/18 03:31:15;;;;;;;12.77;5.13;;;;;;;;;;6264457;28;20127;-81
2022/05/18 03:34:16;;;;;;;7.63;5.30;;;;;;;;;;6280815;28;20047;-81
2022/05/18 03:37:18;;;;;;;8.20;5.55;;;;;;;;;;6290657;28;20064;-81
2022/05/18 03:40:20;;;;;;;7.03;5.03;;;;;;;;;;6291497;28;20055;-79
2022/05/18 03:43:22;;;;;;;8.10;4.88;;;;;;;;;;6290380;28;20165;-80
2022/05/18 03:46:24;;;;;;;6.43;4.75;;;;;;;;;;6251618;28;20097;-80
2022/05/18 03:49:25;;;;;;;6.18;4.75;;;;;;;;;;6288311;28;20038;-80
2022/05/18 03:52:27;;;;;;;6.30;4.80;;;;;;;;;;6289244;28;20064;-80
2022/05/18 03:55:30;;;;;;;6.40;5.20;;;;;;;;;;6286988;28;20106;-80
2022/05/18 03:58:31;;;;;;;10.82;6.55;;;;;;;;;;6299917;28;20064;-79
2022/05/18 04:01:33;;;;;;;9.10;5.30;;;;;;;;;;6276143;28;20414;-80
2022/05/18 04:04:35;;;;;;;6.95;4.97;;;;;;;;;;6261803;28;20064;-79
2022/05/18 04:07:37;;;;;;;9.73;5.70;;;;;;;;;;6261225;28;20049;-79
2022/05/18 04:10:39;;;;;;;6.53;5.20;;;;;;;;;;6260833;28;20053;-80
2022/05/18 04:13:41;;;;;;;6.73;5.27;;;;;;;;;;6287827;28;20093;-80
2022/05/18 04:16:48;;;;;;;7.93;5.18;;;;;;;;;;6289955;28;20082;-79
2022/05/18 04:19:50;;;;;;;9.88;6.07;;;;;;;;;;6288758;28;20054;-79
2022/05/18 04:22:52;;;;;;;7.78;5.50;;;;;;;;;;6290083;28;20151;-79
2022/05/18 04:25:54;;;;;;;10.25;5.78;;;;;;;;;;6306097;28;20079;-79
2022/05/18 04:28:55;;;;;;;8.77;6.10;;;;;;;;;;6289384;28;20517;-82
2022/05/18 04:31:57;;;;;;;9.57;6.22;;;;;;;;;;6289473;28;20512;-80
2022/05/18 04:34:59;;;;;;;11.02;6.03;;;;;;;;;;6309152;28;20044;-81
2022/05/18 04:38:01;;;;;;;8.27;5.88;;;;;;;;;;6316062;28;20115;-81
2022/05/18 04:41:03;;;;;;;8.55;5.80;;;;;;;;;;6314960;28;20062;-79
2022/05/18 04:44:05;;;;;;;8.75;6.13;;;;;;;;;;6291095;28;20117;-79
2022/05/18 04:47:06;;;;;;;8.70;5.85;;;;;;;;;;6289692;28;20117;-78
2022/05/18 04:50:09;;;;;;;8.30;5.75;;;;;;;;;;6287889;28;20052;-80
2022/05/18 04:53:11;;;;;;;10.40;6.65;;;;;;;;;;6288077;28;20059;-80
2022/05/18 04:56:13;;;;;;;8.30;5.93;;;;;;;;;;6289503;28;20068;-80
2022/05/18 04:59:14;;;;;;;10.23;6.28;;;;;;;;;;6289473;28;20501;-79
2022/05/18 05:02:17;;;;;;;7.35;5.80;;;;;;;;;;6288702;28;20070;-80
2022/05/18 05:05:19;;;;;;;8.23;5.75;;;;;;;;;;6313061;28;20044;-80
2022/05/18 05:08:21;;;;;;;8.23;6.00;;;;;;;;;;6313037;28;20059;-80
2022/05/18 05:11:23;;;;;;;7.20;5.80;;;;;;;;;;6309867;28;20047;-79
2022/05/18 05:14:24;;;;;;;7.97;6.00;;;;;;;;;;6311503;28;20123;-81
2022/05/18 05:17:26;;;;;;;6.43;5.18;;;;;;;;;;6309895;28;20561;-79
2022/05/18 05:20:28;;;;;;;10.82;5.80;;;;;;;;;;6286354;28;20158;-79
2022/05/18 05:23:29;;;;;;;7.18;5.90;;;;;;;;;;6289177;28;20186;-80
2022/05/18 05:26:31;;;;;;;8.27;5.63;;;;;;;;;;6289369;28;20052;-80
2022/05/18 05:29:33;;;;;;;9.90;6.07;;;;;;;;;;6278262;28;20124;-80
2022/05/18 05:32:35;;;;;;;8.02;6.10;;;;;;;;;;6263942;28;20108;-80
2022/05/18 05:35:41;;;;;;;8.65;5.93;;;;;;;;;;6288880;28;20044;-80
2022/05/18 05:38:42;;;;;;;9.27;6.05;;;;;;;;;;6306733;28;20121;-80
2022/05/18 05:41:44;;;;;;;7.25;5.80;;;;;;;;;;6293580;28;20044;-80
2022/05/18 05:44:46;;;;;;;7.10;5.47;;;;;;;;;;6293028;28;20430;-80
2022/05/18 05:47:47;;;;;;;9.10;6.10;;;;;;;;;;6291631;28;20055;-79
2022/05/18 05:50:53;;;;;;;8.30;5.47;;;;;;;;;;6301026;28;20055;-80
2022/05/18 05:53:55;;;;;;;12.73;5.87;;;;;;;;;;6300149;28;20485;-80
2022/05/18 05:56:57;;;;;;;10.15;6.25;;;;;;;;;;6317474;28;20087;-80
2022/05/18 06:00:00;;;;;;;8.32;5.93;;;;;;;;;;6316693;28;20178;-79
2022/05/18 06:03:14;;;;;;;6.50;5.70;;;;;;;;;;6322833;28;20376;-79
2022/05/18 06:06:19;;;;;;;9.55;6.45;;;;;;;;;;6344376;28;20063;-80
2022/05/18 06:09:20;;;;;;;7.88;5.63;;;;;;;;;;6325652;28;20043;-80
2022/05/18 06:12:25;;;;;;;7.28;6.00;;;;;;;;;;6338481;28;20170;-80
2022/05/18 06:15:27;;;;;;;7.60;5.60;;;;;;;;;;6342675;28;20116;-81
2022/05/18 06:18:30;;;;;;;8.18;5.20;;;;;;;;;;6340043;28;20039;-80
2022/05/18 06:21:31;;;;;;;7.80;5.10;;;;;;;;;;6341547;28;20128;-79
2022/05/18 06:24:33;;;;;;;7.28;5.00;;;;;;;;;;6324081;28;20039;-80
2022/05/18 06:27:35;;;;;;;6.50;4.70;;;;;;;;;;6324791;28;20044;-79
2022/05/18 06:30:38;;;;;;;7.60;5.00;;;;;;;;;;6298316;28;20113;-80
2022/05/18 06:33:40;;;;;;;7.25;4.90;;;;;;;;;;6304837;28;20122;-79
2022/05/18 06:36:42;;;;;;;7.93;4.57;;;;;;;;;;6292950;28;20037;-79
2022/05/18 06:39:44;;;;;;;9.45;4.95;;;;;;;;;;6291771;28;20043;-80
2022/05/18 06:42:45;;;;;;;9.07;4.60;;;;;;;;;;6294896;28;20063;-82
2022/05/18 06:45:48;;;;;;;8.82;4.43;;;;;;;;;;6297119;28;20100;-83
2022/05/18 06:48:50;;;;;;;6.40;4.63;;;;;;;;;;6286765;28;20076;-81
2022/05/18 06:51:52;;;;;;;6.50;4.03;;;;;;;;;;6272181;28;20053;-81
2022/05/18 06:54:54;;;;;;;4.72;4.10;;;;;;;;;;6270061;28;20064;-82
2022/05/18 06:57:59;;;;;;;6.25;4.07;;;;;;;;;;6302993;28;20044;-82
2022/05/18 07:01:01;;;;;;;6.28;4.20;;;;;;;;;;6307792;28;20048;-83
2022/05/18 07:04:04;;;;;;;7.05;4.43;;;;;;;;;;6292656;28;20041;-82
2022/05/18 07:07:06;;;;;;;6.43;4.15;;;;;;;;;;6288652;28;20040;-82
2022/05/18 07:10:08;;;;;;;7.25;4.28;;;;;;;;;;6292112;28;20049;-83
2022/05/18 07:13:10;;;;;;;5.57;4.30;;;;;;;;;;6293766;28;20067;-82
2022/05/18 07:16:12;;;;;;;6.33;4.13;;;;;;;;;;6291862;28;20108;-83
2022/05/18 07:19:15;;;;;;;6.50;4.20;;;;;;;;;;6313788;28;20055;-81
2022/05/18 07:22:16;;;;;;;;;;;;;;;;;;6290040;28;20052;-83
2022/05/18 07:25:18;;;;;;;8.70;4.25;;;;;;;;;;6292325;28;19928;-83
2022/05/18 07:28:20;;;;;;;5.82;4.18;;;;;;;;;;6288554;28;20094;-79
2022/05/18 07:31:23;;;;;;;7.10;4.80;;;;;;;;;;6295498;28;20498;-80
2022/05/18 07:34:47;;;;;;;6.13;4.53;;;;;;;;;;6285991;28;20083;-81
2022/05/18 07:37:48;;;;;;;8.75;4.18;;;;;;;;;;6289596;28;20056;-80
2022/05/18 07:40:51;;;;;;;6.88;4.55;;;;;;;;;;6287815;28;20074;-79
2022/05/18 07:43:53;;;;;;;4.72;4.15;;;;;;;;;;6295615;28;20445;-79
2022/05/18 07:46:55;;;;;;;4.40;3.97;;;;;;;;;;6291067;28;20752;-79
2022/05/18 07:49:57;;;;;;;;;;;;;;;;;;6284602;28;20072;-81
2022/05/18 07:52:59;;;;;;;7.40;4.80;;;;;;;;;;6314832;28;20391;-81
2022/05/18 07:56:01;;;;;;;7.55;4.30;;;;;;;;;;6298668;28;20036;-80
2022/05/18 07:59:04;;;;;;;8.23;4.87;;;;;;;;;;6315779;28;20050;-80
2022/05/18 08:02:06;;;;;;;;;;;;;;;;;;6309218;28;20071;-81
2022/05/18 08:05:08;;;;;;;6.13;4.03;;;;;;;;;;6314081;28;20011;-81
2022/05/18 08:08:22;;;;;;;6.53;3.30;;;;;;;;;;6318085;28;20122;-79
2022/05/18 08:18:05;;;;;;;4.72;3.00;;;;;;;;;;6297341;28;20885;-81
2022/05/18 08:21:06;;;;;;;5.40;3.22;;;;;;;;;;6317070;28;20101;-81
2022/05/18 08:24:09;;;;;;;6.47;3.42;;;;;;;;;;6315719;28;20051;-82
2022/05/18 08:27:13;;;;;;;4.13;3.40;;;;;;;;;;6313403;28;20044;-82
2022/05/18 08:30:21;;;;;;;5.45;3.50;;;;;;;;;;6291233;28;20059;-81
2022/05/18 08:33:23;;;;;;;5.25;3.40;;;;;;;;;;6298302;28;20115;-81
2022/05/18 08:36:26;;;;;;;3.83;3.43;;;;;;;;;;6317946;28;20066;-81
2022/05/18 08:39:28;;;;;;;4.80;2.88;;;;;;;;;;6316577;28;20040;-81
2022/05/18 08:42:30;;;;;;;4.53;2.93;;;;;;;;;;6315495;28;20046;-82
2022/05/18 08:45:35;;;;;;;4.83;3.20;;;;;;;;;;6316414;28;20040;-81
2022/05/18 08:49:32;;;;;;;3.75;3.30;;;;;;;;;;6300830;28;20051;-81
2022/05/18 08:52:50;;;;;;;5.82;2.95;;;;;;;;;;6290523;28;20048;-82
2022/05/18 08:56:01;;;;;;;5.35;3.25;;;;;;;;;;6317681;28;20048;-82
2022/05/18 08:59:05;;;;;;;4.05;2.85;;;;;;;;;;6311639;28;20040;-81
2022/05/18 09:02:20;;;;;;;3.92;3.03;;;;;;;;;;6291719;28;20337;-83
2022/05/18 09:05:31;;;;;;;6.70;2.90;;;;;;;;;;6263805;28;20044;-82
2022/05/18 09:08:44;;;;;;;4.88;3.13;;;;;;;;;;6263157;28;20040;-80
2022/05/18 09:11:47;;;;;;;5.50;2.88;;;;;;;;;;6262996;28;20095;-80
2022/05/18 09:14:48;;;;;;;;;;;;;;;;;;6318434;28;20040;-82
2022/05/18 09:17:59;;;;;;;4.75;2.70;;;;;;;;;;6319972;28;19977;-80
2022/05/18 09:21:33;;;;;;;3.38;2.90;;;;;;;;;;6319835;28;20067;-82
2022/05/18 09:24:54;;;;;;;7.80;3.17;;;;;;;;;;6293698;28;20775;-81
2022/05/18 09:28:01;;;;;;;3.35;2.80;;;;;;;;;;6313984;28;20044;-81
2022/05/18 09:31:33;;;;;;;7.15;3.10;;;;;;;;;;6317959;28;20078;-81
2022/05/18 09:34:40;;;;;;;4.75;3.30;;;;;;;;;;6296077;28;20052;-82
2022/05/18 09:37:56;;;;;;;5.20;2.88;;;;;;;;;;6317254;28;20131;-82
2022/05/18 09:40:59;;;;;;;4.82;2.78;;;;;;;;;;6297648;28;20060;-81
2022/05/18 09:44:24;;;;;;;5.22;3.38;;;;;;;;;;6297241;28;20144;-81
2022/05/18 09:47:27;;;;;;;6.15;3.70;;;;;;;;;;6317831;28;20146;-80
2022/05/18 09:50:29;;;;;;;4.55;2.80;;;;;;;;;;6316155;28;20044;-80
2022/05/18 09:53:31;;;;;;;3.83;2.95;;;;;;;;;;6317026;28;20040;-80
2022/05/18 09:56:39;;;;;;;4.50;3.17;;;;;;;;;;6317963;28;20076;-79
2022/05/18 09:59:56;;;;;;;4.30;3.08;;;;;;;;;;6298994;28;20796;-79
2022/05/18 10:10:08;;;;;;;3.35;3.05;;;;;;;;;;6312973;28;20044;-77
2022/05/18 10:13:20;;;;;;;5.20;3.15;;;;;;;;;;6307119;28;20100;-80
2022/05/18 10:16:47;;;;;;;6.97;3.25;;;;;;;;;;6293301;28;20121;-82
2022/05/18 10:19:52;;;;;;;4.95;3.20;;;;;;;;;;6290593;28;20123;-81
2022/05/18 10:22:57;;;;;;;5.13;2.85;;;;;;;;;;6290696;28;20044;-81
2022/05/18 10:25:59;;;;;;;4.82;3.08;;;;;;;;;;6291396;28;20141;-81
2022/05/18 10:29:12;;;;;;;6.03;2.90;;;;;;;;;;6290013;28;20643;-79
2022/05/18 10:32:27;;;;;;;3.15;2.60;;;;;;;;;;6291649;28;20052;-81
2022/05/18 10:35:41;;;;;;;2.95;2.53;;;;;;;;;;6286683;28;20045;-79
2022/05/18 10:38:55;;;;;;;5.28;3.00;;;;;;;;;;6289051;28;20048;-81
2022/05/18 10:41:57;;;;;;;5.18;3.03;;;;;;;;;;6285406;28;20045;-80
2022/05/18 10:45:00;;;;;;;;;;;;;;;;;;6288557;28;20106;-80
2022/05/18 10:48:09;;;;;;;3.83;2.55;;;;;;;;;;6290033;28;20009;-79
2022/05/18 10:51:13;;;;;;;4.25;2.50;;;;;;;;;;6288440;28;20040;-80
2022/05/18 10:54:22;;;;;;;4.82;2.33;;;;;;;;;;6289934;28;20489;-81
2022/05/18 10:57:31;;;;;;;4.47;2.92;;;;;;;;;;6290285;28;20060;-80
2022/05/18 11:00:55;;;;;;;4.43;2.90;;;;;;;;;;6288033;28;20040;-80
2022/05/18 11:04:18;;;;;;;5.03;2.83;;;;;;;;;;6308869;28;20044;-80
2022/05/18 11:07:26;;;;;;;3.63;2.92;;;;;;;;;;6300385;28;20544;-81
2022/05/18 11:10:38;;;;;;;5.22;3.08;;;;;;;;;;6288790;28;20383;-80
2022/05/18 11:14:16;;;;;;;5.97;3.10;;;;;;;;;;6280410;28;20103;-81
2022/05/18 11:17:53;;;;;;;4.65;3.47;;;;;;;;;;6267326;28;20111;-79
2022/05/18 11:21:13;;;;;;;5.05;3.30;;;;;;;;;;6252330;28;20076;-80
2022/05/18 11:24:35;;;;;;;6.88;3.20;;;;;;;;;;6265492;28;20045;-80
2022/05/18 11:27:50;;;;;;;4.47;3.72;;;;;;;;;;6288899;28;20049;-80
2022/05/18 11:30:55;;;;;;;5.40;3.67;;;;;;;;;;6289758;28;20644;-81
2022/05/18 11:34:15;;;;;;;4.15;3.25;;;;;;;;;;6290409;28;20078;-80
2022/05/18 11:37:41;;;;;;;4.88;3.33;;;;;;;;;;6291809;28;20068;-80
2022/05/18 11:40:50;;;;;;;3.92;3.38;;;;;;;;;;6287370;28;20055;-81
2022/05/18 11:44:00;;;;;;;3.67;3.20;;;;;;;;;;6286981;28;20070;-80
2022/05/18 11:47:31;;;;;;;6.95;3.50;;;;;;;;;;6287884;28;20106;-79
2022/05/18 11:50:38;;;;;;;3.60;3.30;;;;;;;;;;6263946;28;20068;-79
2022/05/18 11:54:06;;;;;;;3.95;3.58;;;;;;;;;;6266298;28;20049;-79
2022/05/18 11:57:19;;;;;;;4.10;3.45;;;;;;;;;;6262922;28;20048;-78
2022/05/18 12:04:01;;;;;;;3.90;3.28;;;;;;;;;;6284499;28;20218;-79
2022/05/18 12:07:30;;;;;;;4.70;3.50;;;;;;;;;;6318771;28;20066;-79
2022/05/18 12:10:56;;;;;;;4.28;3.30;;;;;;;;;;6311455;28;20048;-80
2022/05/18 12:14:39;;;;;;;3.63;3.20;;;;;;;;;;6289317;28;20094;-78
2022/05/18 12:17:54;;;;;;;2.85;2.60;;;;;;;;;;6273235;28;20049;-79
2022/05/18 12:21:13;;;;;;;4.53;3.28;;;;;;;;;;6289740;28;20060;-79
2022/05/18 12:24:15;;;;;;;5.57;3.28;;;;;;;;;;6287138;28;20131;-79
2022/05/18 12:27:19;;;;;;;5.55;3.22;;;;;;;;;;6287326;28;20079;-78
2022/05/18 12:30:24;;;;;;;5.20;3.50;;;;;;;;;;6286861;28;20067;-79
2022/05/18 12:33:26;;;;;;;6.32;3.45;;;;;;;;;;6287727;28;20048;-80
2022/05/18 12:36:50;;;;;;;4.68;3.05;;;;;;;;;;6271435;28;20056;-79
2022/05/18 12:40:07;;;;;;;5.70;2.90;;;;;;;;;;6285499;28;20131;-79
2022/05/18 12:43:26;;;;;;;5.03;3.20;;;;;;;;;;6288579;28;20060;-79
2022/05/18 12:46:55;;;;;;;4.00;3.22;;;;;;;;;;6289810;28;20048;-80
2022/05/18 12:50:07;;;;;;;14.60;7.20;;;;;;;;;;6284732;28;20078;-79
2022/05/18 12:53:21;;;;;;;4.40;2.88;;;;;;;;;;6286489;28;20052;-79
2022/05/18 12:56:35;;;;;;;7.03;3.35;;;;;;;;;;6284824;28;20559;-79
2022/05/18 13:00:12;;;;;;;5.63;3.20;;;;;;;;;;6284040;28;20037;-81
2022/05/18 13:03:17;;;;;;;5.93;2.97;;;;;;;;;;6265807;28;20119;-80
2022/05/18 13:06:39;;;;;;;5.38;3.05;;;;;;;;;;6283723;28;20052;-81
2022/05/18 13:09:45;;;;;;;3.85;3.10;;;;;;;;;;6281362;28;20541;-80
2022/05/18 13:13:00;;;;;;;4.97;2.80;;;;;;;;;;6283015;28;20068;-81
2022/05/18 13:16:02;;;;;;;4.10;2.97;;;;;;;;;;6284340;28;20036;-80
2022/05/18 13:19:13;;;;;;;5.30;3.15;;;;;;;;;;6287287;28;20050;-80
2022/05/18 13:22:14;;;;;;;4.55;3.25;;;;;;;;;;6276784;28;20048;-80
2022/05/18 13:25:16;;;;;;;4.90;2.85;;;;;;;;;;6286530;28;20036;-81
2022/05/18 13:28:19;;;;;;;3.08;2.58;;;;;;;;;;6286254;28;20079;-81
2022/05/18 13:31:21;;;;;;;4.18;2.65;;;;;;;;;;6287558;28;20055;-83
2022/05/18 13:34:29;;;;;;;4.35;2.80;;;;;;;;;;6282832;28;20037;-84
2022/05/18 13:37:31;;;;;;;3.97;2.90;;;;;;;;;;6296215;28;20067;-85
2022/05/18 13:41:02;;;;;;;3.17;2.70;;;;;;;;;;6295520;28;20129;-84
2022/05/18 13:44:05;;;;;;;4.63;2.70;;;;;;;;;;6295118;28;20543;-85
2022/05/18 13:47:11;;;;;;;2.72;2.50;;;;;;;;;;6289658;28;20446;-82
2022/05/18 13:50:25;;;;;;;4.65;2.47;;;;;;;;;;6295080;28;20499;-82
2022/05/18 13:53:37;;;;;;;4.00;2.50;;;;;;;;;;6280800;28;20048;-82
2022/05/18 13:56:44;;;;;;;2.97;2.78;;;;;;;;;;6302760;28;20043;-79
2022/05/18 13:59:54;;;;;;;2.92;2.67;;;;;;;;;;6338825;28;20143;-78
2022/05/18 14:02:59;;;;;;;3.45;2.65;;;;;;;;;;6335423;28;20130;-78
2022/05/18 14:06:22;;;;;;;6.10;2.65;;;;;;;;;;6344561;28;20190;-82
2022/05/18 14:09:44;;;;;;;3.25;2.85;;;;;;;;;;6323547;28;20799;-82
2022/05/18 14:12:48;;;;;;;2.60;2.40;;;;;;;;;;6290439;28;20118;-81
2022/05/18 14:15:50;;;;;;;3.05;2.13;;;;;;;;;;6283331;28;20073;-80
2022/05/18 14:18:55;;;;;;;4.32;2.67;;;;;;;;;;6307677;28;20089;-80
2022/05/18 14:21:59;;;;;;;3.13;2.50;;;;;;;;;;6334972;28;20189;-81
2022/05/18 14:25:08;;;;;;;3.78;2.50;;;;;;;;;;6334312;28;20431;-81
2022/05/18 14:28:12;;;;;;;4.65;2.60;;;;;;;;;;6333897;28;20114;-81
2022/05/18 14:31:17;;;;;;;4.45;2.60;;;;;;;;;;6332432;28;20544;-80
2022/05/18 14:34:24;;;;;;;4.80;2.50;;;;;;;;;;6327332;28;20044;-80
2022/05/18 14:37:52;;;;;;;2.70;2.40;;;;;;;;;;6333752;28;20043;-80
2022/05/18 14:40:56;;;;;;;2.55;2.33;;;;;;;;;;6324386;28;20090;-79
2022/05/18 14:43:59;;;;;;;3.63;2.70;;;;;;;;;;6287031;28;20044;-79
2022/05/18 14:47:07;;;;;;;3.05;2.47;;;;;;;;;;6295800;28;20174;-79
2022/05/18 14:50:38;;;;;;;2.63;2.40;;;;;;;;;;6332797;28;20055;-80
2022/05/18 14:53:46;;;;;;;2.65;2.30;;;;;;;;;;6340428;28;20071;-81
2022/05/18 14:56:59;;;;;;;4.65;2.40;;;;;;;;;;6329525;28;20048;-80
2022/05/18 15:00:01;;;;;;;;;;;;;;;;;;6317125;28;20196;-80
2022/05/18 15:03:08;;;;;;;3.45;2.65;;;;;;;;;;6297591;28;19967;-80
2022/05/18 15:06:13;;;;;;;9.50;3.67;;;;;;;;;;6312717;28;20048;-79
2022/05/18 15:09:17;;;;;;;2.40;2.20;;;;;;;;;;6320395;28;20043;-84
2022/05/18 15:12:30;;;;;;;2.60;2.35;;;;;;;;;;6329765;28;20039;-84
2022/05/18 15:16:00;;;;;;;2.97;2.20;;;;;;;;;;6326008;28;20063;-84
2022/05/18 15:19:02;;;;;;;4.45;2.60;;;;;;;;;;6300613;28;20047;-81
2022/05/18 15:22:14;;;;;;;3.28;2.30;;;;;;;;;;6315579;28;20055;-81
2022/05/18 15:25:33;;;;;;;2.53;2.33;;;;;;;;;;6300073;28;20204;-81
2022/05/18 15:28:43;;;;;;;3.67;2.60;;;;;;;;;;6315526;28;20047;-83
2022/05/18 15:32:12;;;;;;;3.67;2.60;;;;;;;;;;6326172;28;20058;-83
2022/05/18 15:35:18;;;;;;;3.78;2.20;;;;;;;;;;6299987;28;20044;-82
2022/05/18 15:38:22;;;;;;;3.58;2.53;;;;;;;;;;6291275;28;20041;-83
2022/05/18 15:41:24;;;;;;;3.20;2.30;;;;;;;;;;6291780;28;20052;-83
2022/05/18 15:44:27;;;;;;;4.10;2.45;;;;;;;;;;6287000;28;20078;-83
2022/05/18 15:47:36;;;;;;;3.58;2.60;;;;;;;;;;6285061;28;20041;-83
2022/05/18 15:50:41;;;;;;;3.63;2.58;;;;;;;;;;6284763;28;20052;-83
2022/05/18 15:53:47;;;;;;;3.97;2.20;;;;;;;;;;6292302;28;20052;-81
2022/05/18 15:56:52;;;;;;;4.00;2.67;;;;;;;;;;6287823;28;20120;-81
2022/05/18 15:59:54;;;;;;;2.60;2.40;;;;;;;;;;6291620;28;20086;-82
2022/05/18 16:02:56;;;;;;;2.40;2.00;;;;;;;;;;6297925;28;20159;-78
2022/05/18 16:05:58;;;;;;;2.88;2.38;;;;;;;;;;6321698;28;20063;-81
2022/05/18 16:09:02;;;;;;;3.08;2.50;;;;;;;;;;6321387;28;20109;-80
2022/05/18 16:12:06;;;;;;;2.60;2.30;;;;;;;;;;6305594;28;20537;-81
2022/05/18 16:15:08;;;;;;;3.10;2.20;;;;;;;;;;6291758;28;20121;-80
2022/05/18 16:18:10;;;;;;;4.15;2.13;;;;;;;;;;6294155;28;20044;-79
2022/05/18 16:21:18;;;;;;;2.55;2.25;;;;;;;;;;6294436;28;20130;-78
2022/05/18 16:24:30;;;;;;;2.40;2.20;;;;;;;;;;6295353;28;20051;-78
2022/05/18 16:27:34;;;;;;;3.38;1.92;;;;;;;;;;6289181;28;20563;-78
2022/05/18 16:30:36;;;;;;;3.25;2.10;;;;;;;;;;6290549;28;20072;-78
2022/05/18 16:33:58;;;;;;;3.22;2.20;;;;;;;;;;6306462;28;20048;-78
2022/05/18 16:36:59;;;;;;;4.57;2.20;;;;;;;;;;6319245;28;20125;-77
2022/05/18 16:40:01;;;;;;;3.45;2.20;;;;;;;;;;6316707;28;20088;-78
2022/05/18 16:43:03;;;;;;;3.78;2.30;;;;;;;;;;6297522;28;20044;-82
2022/05/18 16:46:06;;;;;;;2.35;2.10;;;;;;;;;;6293643;28;20048;-82
2022/05/18 16:49:08;;;;;;;2.22;2.03;;;;;;;;;;6320705;28;20111;-81
2022/05/18 16:52:10;;;;;;;3.30;2.38;;;;;;;;;;6303910;28;20075;-80
2022/05/18 16:55:12;;;;;;;;;;;;;;;;;;6271114;28;20164;-80
2022/05/18 16:58:15;;;;;;;3.80;1.90;;;;;;;;;;6315292;28;19980;-81
2022/05/18 17:01:19;;;;;;;3.80;2.38;;;;;;;;;;6307733;28;20063;-81
2022/05/18 17:04:22;;;;;;;3.10;2.22;;;;;;;;;;6307685;28;20044;-81
2022/05/18 17:07:23;;;;;;;2.35;2.03;;;;;;;;;;6293825;28;20071;-81
2022/05/18 17:10:25;;;;;;;3.73;2.47;;;;;;;;;;6282614;28;20049;-80
2022/05/18 17:13:27;;;;;;;3.47;2.13;;;;;;;;;;6282413;28;20135;-80
2022/05/18 17:16:29;;;;;;;2.63;1.90;;;;;;;;;;6282968;28;20442;-79
2022/05/18 17:19:32;;;;;;;3.33;2.03;;;;;;;;;;6284778;28;20052;-78
2022/05/18 17:22:35;;;;;;;2.42;2.15;;;;;;;;;;6286144;28;20050;-79
2022/05/18 17:25:37;;;;;;;4.00;2.40;;;;;;;;;;6284438;28;20173;-79
2022/05/18 17:28:43;;;;;;;4.25;2.60;;;;;;;;;;6286612;28;20123;-79
2022/05/18 17:31:45;;;;;;;5.55;2.30;;;;;;;;;;6300272;28;20037;-82
2022/05/18 17:34:48;;;;;;;4.75;2.60;;;;;;;;;;6284517;28;20128;-78
2022/05/18 17:37:51;;;;;;;4.95;2.90;;;;;;;;;;6290420;28;20110;-79
2022/05/18 17:40:57;;;;;;;6.95;2.55;;;;;;;;;;6287418;28;20052;-79
2022/05/18 17:43:58;;;;;;;3.80;2.33;;;;;;;;;;6287558;28;20121;-79
2022/05/18 17:47:00;;;;;;;4.45;3.15;;;;;;;;;;6288276;28;20846;-79
2022/05/18 17:50:07;;;;;;;4.45;2.40;;;;;;;;;;6310613;28;20380;-80
2022/05/18 17:53:13;;;;;;;4.43;2.38;;;;;;;;;;6296314;28;20125;-80
2022/05/18 17:56:14;;;;;;;;;;;;;;;;;;6290906;28;20043;-79
2022/05/18 17:59:36;;;;;;;3.15;2.03;;;;;;;;;;6290491;28;21364;-79
2022/05/18 18:02:41;;;;;;;3.15;2.20;;;;;;;;;;6290164;28;20040;-79
2022/05/18 18:05:43;;;;;;;2.92;2.40;;;;;;;;;;6292416;28;20049;-78
2022/05/18 18:08:45;;;;;;;3.03;2.20;;;;;;;;;;6292390;28;20074;-79
2022/05/18 18:11:48;;;;;;;4.57;2.47;;;;;;;;;;6296541;28;20159;-77
2022/05/18 18:14:52;;;;;;;3.88;2.40;;;;;;;;;;6291786;28;20029;-78
2022/05/18 18:17:57;;;;;;;2.78;2.30;;;;;;;;;;6288694;28;20205;-79
2022/05/18 18:20:59;;;;;;;3.25;2.30;;;;;;;;;;6287385;28;20066;-79
2022/05/18 18:24:03;;;;;;;3.40;2.53;;;;;;;;;;6288855;28;20048;-80
2022/05/18 18:27:05;;;;;;;2.90;2.45;;;;;;;;;;6293101;28;20044;-79
2022/05/18 18:30:10;;;;;;;;;;;;;;;;;;6311646;28;20505;-79
2022/05/18 18:33:14;;;;;;;3.47;2.25;;;;;;;;;;6286183;28;19931;-81
2022/05/18 18:36:25;;;;;;;4.32;2.35;;;;;;;;;;6290116;28;20501;-81
2022/05/18 18:39:36;;;;;;;3.15;2.45;;;;;;;;;;6288513;28;20066;-80
2022/05/18 18:42:38;;;;;;;4.57;2.60;;;;;;;;;;6289152;28;20090;-81
2022/05/18 18:49:06;;;;;;;3.00;2.35;;;;;;;;;;6287900;28;20064;-80
2022/05/18 18:55:35;;;;;;;3.58;2.60;;;;;;;;;;6288031;28;20321;-81
2022/05/18 18:58:37;;;;;;;3.28;2.42;;;;;;;;;;6288855;28;20061;-80
2022/05/18 19:01:39;;;;;;;3.63;2.17;;;;;;;;;;6286237;28;20289;-81
2022/05/18 19:04:41;;;;;;;4.43;2.37;;;;;;;;;;6289816;28;20044;-80
2022/05/18 19:07:44;;;;;;;5.18;2.42;;;;;;;;;;6290424;28;20508;-80
2022/05/18 19:10:46;;;;;;;3.75;2.70;;;;;;;;;;6286501;28;20048;-81